Time;durP1;ratioP1;P1;durP2;ratioP2;P2;SDS_P1;SDS_P2;PMS_P1;PMS_P2;Temp;Humidity;BMP_temperature;BMP_pressure;BME280_temperature;BME280_humidity;BME280_pressure;Samples;Min_cycle;Max_cycle;Signal;HPM_P1;HPM_P2
2022/01/22 00:02:23;;;;;;;2.97;1.00;;;;;;;;;;4413837;32;20085;-52
2022/01/22 00:04:52;;;;;;;3.87;1.17;;;;;;;;;;4407872;32;20030;-55
2022/01/22 00:07:20;;;;;;;3.78;0.93;;;;;;;;;;4410616;32;20103;-53
2022/01/22 00:09:52;;;;;;;3.17;0.75;;;;;;;;;;4400277;32;20432;-56
2022/01/22 00:12:32;;;;;;;1.85;0.80;;;;;;;;;;4404553;32;20449;-53
2022/01/22 00:15:00;;;;;;;1.85;0.80;;;;;;;;;;4409336;32;20038;-53
2022/01/22 00:17:29;;;;;;;1.83;0.88;;;;;;;;;;4414695;32;20037;-55
2022/01/22 00:19:57;;;;;;;1.98;0.80;;;;;;;;;;4411173;32;20035;-53
2022/01/22 00:22:30;;;;;;;2.00;0.90;;;;;;;;;;4413437;32;20073;-53
2022/01/22 00:25:01;;;;;;;2.90;1.20;;;;;;;;;;4407704;32;20054;-54
2022/01/22 00:27:29;;;;;;;2.40;0.95;;;;;;;;;;4404142;32;20355;-53
2022/01/22 00:29:58;;;;;;;2.87;0.80;;;;;;;;;;4403699;32;20038;-56
2022/01/22 00:32:26;;;;;;;3.87;0.98;;;;;;;;;;4417746;32;20039;-55
2022/01/22 00:34:55;;;;;;;2.22;0.90;;;;;;;;;;4409370;32;20070;-52
2022/01/22 00:37:23;;;;;;;1.02;0.77;;;;;;;;;;4414839;32;20500;-54
2022/01/22 00:39:51;;;;;;;2.62;0.80;;;;;;;;;;4411812;32;20366;-54
2022/01/22 00:42:21;;;;;;;1.87;0.88;;;;;;;;;;4402187;32;20320;-53
2022/01/22 00:44:51;;;;;;;3.00;1.00;;;;;;;;;;4410317;32;20474;-55
2022/01/22 00:47:19;;;;;;;1.67;0.70;;;;;;;;;;4412515;32;20424;-51
2022/01/22 00:49:47;;;;;;;3.95;0.95;;;;;;;;;;4410700;32;20319;-52
2022/01/22 00:52:16;;;;;;;3.55;0.93;;;;;;;;;;4408664;32;20406;-53
2022/01/22 00:54:45;;;;;;;2.95;1.08;;;;;;;;;;4406270;32;20477;-54
2022/01/22 00:57:13;;;;;;;1.35;0.75;;;;;;;;;;4417109;32;20058;-51
2022/01/22 00:59:41;;;;;;;5.40;0.90;;;;;;;;;;4415244;32;20038;-52
2022/01/22 01:02:10;;;;;;;1.75;0.80;;;;;;;;;;4414292;32;20372;-55
2022/01/22 01:04:38;;;;;;;1.60;0.68;;;;;;;;;;4413779;32;20037;-55
2022/01/22 01:07:07;;;;;;;1.77;0.77;;;;;;;;;;4415961;32;20429;-55
2022/01/22 01:09:38;;;;;;;2.60;0.93;;;;;;;;;;4402372;32;20637;-52
2022/01/22 01:12:10;;;;;;;1.62;0.62;;;;;;;;;;4407633;32;20061;-56
2022/01/22 01:14:54;;;;;;;2.30;0.93;;;;;;;;;;4406740;32;20038;-53
2022/01/22 01:33:57;;;;;;;1.73;0.70;;;;;;;;;;4406903;32;20034;-54
2022/01/22 01:36:26;;;;;;;1.45;0.68;;;;;;;;;;4412672;32;20104;-55
2022/01/22 01:38:59;;;;;;;3.10;0.88;;;;;;;;;;4411012;32;20057;-55
2022/01/22 01:41:48;;;;;;;1.50;0.70;;;;;;;;;;4408008;32;20046;-55
2022/01/22 01:44:17;;;;;;;1.23;0.70;;;;;;;;;;4412409;32;20030;-51
2022/01/22 01:46:50;;;;;;;1.70;0.75;;;;;;;;;;4406212;32;20046;-53
2022/01/22 01:49:19;;;;;;;1.90;0.95;;;;;;;;;;4407507;32;20109;-54
2022/01/22 01:51:47;;;;;;;1.87;0.75;;;;;;;;;;4409032;32;20065;-54
2022/01/22 01:54:32;;;;;;;2.25;0.62;;;;;;;;;;4408660;32;20101;-52
2022/01/22 01:59:51;;;;;;;1.60;0.77;;;;;;;;;;4405568;32;20064;-53
2022/01/22 02:02:23;;;;;;;2.08;0.95;;;;;;;;;;4407443;32;20422;-54
2022/01/22 02:04:52;;;;;;;1.12;0.80;;;;;;;;;;4412792;32;20084;-53
2022/01/22 02:07:21;;;;;;;1.80;0.90;;;;;;;;;;4407495;32;20038;-55
2022/01/22 02:09:51;;;;;;;2.95;0.60;;;;;;;;;;4402235;32;20372;-54
2022/01/22 02:12:44;;;;;;;2.78;1.00;;;;;;;;;;4401095;32;20524;-53
2022/01/22 02:23:46;;;;;;;1.83;0.70;;;;;;;;;;4403835;32;20058;-54
2022/01/22 02:26:15;;;;;;;2.10;0.70;;;;;;;;;;4407093;32;20042;-54
2022/01/22 02:28:49;;;;;;;1.75;1.00;;;;;;;;;;4404673;32;20134;-51
2022/01/22 02:31:34;;;;;;;2.83;0.88;;;;;;;;;;4406902;32;20055;-54
2022/01/22 02:34:19;;;;;;;1.30;0.80;;;;;;;;;;4403823;32;20084;-55
2022/01/22 02:37:05;;;;;;;1.40;0.90;;;;;;;;;;4415238;32;20065;-53
2022/01/22 02:39:57;;;;;;;2.17;1.10;;;;;;;;;;4409410;32;20335;-56
2022/01/22 02:42:30;;;;;;;2.20;0.65;;;;;;;;;;4404207;32;20043;-51
2022/01/22 02:45:00;;;;;;;3.00;0.90;;;;;;;;;;4405541;32;20432;-53
2022/01/22 02:47:28;;;;;;;1.62;1.00;;;;;;;;;;4400528;32;20042;-54
2022/01/22 02:49:56;;;;;;;1.73;0.88;;;;;;;;;;4408277;32;20072;-51
2022/01/22 02:52:26;;;;;;;1.73;0.93;;;;;;;;;;4402933;32;20102;-52
2022/01/22 02:54:55;;;;;;;1.70;0.70;;;;;;;;;;4411707;32;20038;-52
2022/01/22 02:57:25;;;;;;;1.75;0.77;;;;;;;;;;4415344;32;20047;-55
2022/01/22 02:59:54;;;;;;;1.60;0.90;;;;;;;;;;4414320;32;20046;-51
2022/01/22 03:02:23;;;;;;;3.33;0.90;;;;;;;;;;4412857;32;20043;-51
2022/01/22 03:04:51;;;;;;;3.30;0.88;;;;;;;;;;4411392;32;20064;-54
2022/01/22 03:07:20;;;;;;;2.62;0.85;;;;;;;;;;4411022;32;20088;-52
2022/01/22 03:09:51;;;;;;;2.70;0.82;;;;;;;;;;4412859;32;20418;-51
2022/01/22 03:21:02;;;;;;;2.10;0.90;;;;;;;;;;4411228;32;20054;-54
2022/01/22 03:29:12;;;;;;;1.85;0.75;;;;;;;;;;4415488;32;20035;-51
2022/01/22 03:31:42;;;;;;;2.15;0.70;;;;;;;;;;4415167;32;20084;-53
2022/01/22 03:34:11;;;;;;;1.83;0.70;;;;;;;;;;4413651;32;20053;-52
2022/01/22 03:36:40;;;;;;;1.00;0.68;;;;;;;;;;4414679;32;20042;-53
2022/01/22 03:39:10;;;;;;;2.97;0.90;;;;;;;;;;4410647;32;20038;-52
2022/01/22 03:41:38;;;;;;;2.12;0.73;;;;;;;;;;4404560;32;20050;-54
2022/01/22 03:44:08;;;;;;;2.45;0.90;;;;;;;;;;4405105;32;20436;-55
2022/01/22 03:46:38;;;;;;;2.20;1.00;;;;;;;;;;4406987;32;20050;-51
2022/01/22 03:49:06;;;;;;;1.67;0.82;;;;;;;;;;4405744;32;20112;-53
2022/01/22 03:51:35;;;;;;;1.87;0.70;;;;;;;;;;4411225;32;20054;-54
2022/01/22 03:54:04;;;;;;;2.47;0.80;;;;;;;;;;4415321;32;20038;-54
2022/01/22 03:56:32;;;;;;;2.08;0.68;;;;;;;;;;4412361;32;20409;-52
2022/01/22 03:59:02;;;;;;;2.08;0.80;;;;;;;;;;4410938;32;20072;-54
2022/01/22 04:04:08;;;;;;;3.08;0.82;;;;;;;;;;4412024;32;20368;-54
2022/01/22 04:09:27;;;;;;;2.22;0.88;;;;;;;;;;4408548;32;20062;-53
2022/01/22 04:11:57;;;;;;;1.87;0.70;;;;;;;;;;4402654;32;20051;-50
2022/01/22 04:14:31;;;;;;;1.70;0.70;;;;;;;;;;4403606;32;20110;-52
2022/01/22 04:24:50;;;;;;;2.12;0.88;;;;;;;;;;4406443;32;20547;-51
2022/01/22 04:25:32;;;;;;;3.80;1.15;;;;;;;;;;4410439;32;20072;-51
2022/01/22 04:28:01;;;;;;;2.35;0.70;;;;;;;;;;4407554;32;20423;-51
2022/01/22 04:30:32;;;;;;;1.67;0.70;;;;;;;;;;4409396;32;20039;-54
2022/01/22 04:33:04;;;;;;;3.25;0.80;;;;;;;;;;4408687;32;20086;-54
2022/01/22 04:35:32;;;;;;;3.95;0.90;;;;;;;;;;4412384;32;20073;-51
2022/01/22 04:38:01;;;;;;;1.98;0.70;;;;;;;;;;4410064;32;20034;-52
2022/01/22 04:40:29;;;;;;;3.10;0.90;;;;;;;;;;4409450;32;20051;-55
2022/01/22 04:43:00;;;;;;;2.33;1.17;;;;;;;;;;4406732;32;20023;-53
2022/01/22 04:48:39;;;;;;;2.50;0.60;;;;;;;;;;4408510;32;20425;-52
2022/01/22 04:56:43;;;;;;;1.75;0.73;;;;;;;;;;4410339;32;20060;-53
2022/01/22 04:59:12;;;;;;;2.40;1.05;;;;;;;;;;4416022;32;20034;-55
2022/01/22 05:01:40;;;;;;;2.62;0.75;;;;;;;;;;4416500;32;20444;-55
2022/01/22 05:04:10;;;;;;;1.83;0.85;;;;;;;;;;4416010;32;20062;-55
2022/01/22 05:06:38;;;;;;;2.78;0.73;;;;;;;;;;4410398;32;20018;-54
2022/01/22 05:09:07;;;;;;;1.08;0.60;;;;;;;;;;4411157;32;20038;-53
2022/01/22 05:11:35;;;;;;;1.77;0.80;;;;;;;;;;4405849;32;20110;-53
2022/01/22 05:14:04;;;;;;;2.50;1.00;;;;;;;;;;4411911;32;20102;-54
2022/01/22 05:16:32;;;;;;;3.20;0.85;;;;;;;;;;4413457;32;20372;-55
2022/01/22 05:19:12;;;;;;;1.98;0.80;;;;;;;;;;4408473;32;20377;-54
2022/01/22 05:21:43;;;;;;;1.50;0.88;;;;;;;;;;4412352;32;20046;-54
2022/01/22 05:24:16;;;;;;;1.40;0.60;;;;;;;;;;4408924;32;20434;-55
2022/01/22 05:29:59;;;;;;;1.40;0.80;;;;;;;;;;4411899;32;20414;-54
2022/01/22 05:37:41;;;;;;;2.12;0.80;;;;;;;;;;4398969;32;20541;-53
2022/01/22 05:40:10;;;;;;;2.78;0.68;;;;;;;;;;4414587;32;20069;-54
2022/01/22 05:42:39;;;;;;;2.05;0.75;;;;;;;;;;4403458;32;20030;-51
2022/01/22 05:45:08;;;;;;;1.65;0.73;;;;;;;;;;4404038;32;20038;-53
2022/01/22 05:47:37;;;;;;;2.97;1.00;;;;;;;;;;4400800;32;20406;-54
2022/01/22 05:50:11;;;;;;;2.60;1.05;;;;;;;;;;4404505;32;20446;-55
2022/01/22 05:52:54;;;;;;;3.10;0.90;;;;;;;;;;4403589;32;20038;-52
2022/01/22 06:00:42;;;;;;;2.08;0.80;;;;;;;;;;4402270;32;20047;-52
2022/01/22 06:03:11;;;;;;;1.90;0.68;;;;;;;;;;4405931;32;20045;-55
2022/01/22 06:05:40;;;;;;;2.05;0.90;;;;;;;;;;4409882;32;20042;-56
2022/01/22 06:08:10;;;;;;;2.22;0.85;;;;;;;;;;4412561;32;20076;-54
2022/01/22 06:10:40;;;;;;;3.22;0.70;;;;;;;;;;4405440;32;20090;-52
2022/01/22 06:15:40;;;;;;;3.00;0.73;;;;;;;;;;4408961;32;20065;-55
2022/01/22 06:18:10;;;;;;;1.65;0.73;;;;;;;;;;4411825;32;20495;-55
2022/01/22 06:20:38;;;;;;;1.37;0.62;;;;;;;;;;4411483;32;20094;-54
2022/01/22 06:23:08;;;;;;;2.37;0.73;;;;;;;;;;4409482;32;20035;-52
2022/01/22 06:25:36;;;;;;;2.95;0.93;;;;;;;;;;4409662;32;20492;-53
2022/01/22 06:28:05;;;;;;;3.45;0.80;;;;;;;;;;4403337;32;20335;-55
2022/01/22 06:30:35;;;;;;;3.03;1.00;;;;;;;;;;4411339;32;20027;-55
2022/01/22 06:33:03;;;;;;;2.40;1.05;;;;;;;;;;4405418;32;20057;-55
2022/01/22 06:35:32;;;;;;;1.65;0.82;;;;;;;;;;4406897;32;20384;-55
2022/01/22 06:38:04;;;;;;;4.07;1.00;;;;;;;;;;4413463;32;20418;-54
2022/01/22 06:43:05;;;;;;;2.53;0.95;;;;;;;;;;4414518;32;20123;-51
2022/01/22 06:45:34;;;;;;;2.25;0.70;;;;;;;;;;4411562;32;20047;-52
2022/01/22 06:48:03;;;;;;;2.33;1.00;;;;;;;;;;4414998;32;20034;-53
2022/01/22 06:50:32;;;;;;;3.10;0.77;;;;;;;;;;4412272;32;20354;-52
2022/01/22 06:53:02;;;;;;;2.10;0.80;;;;;;;;;;4406753;32;20077;-55
2022/01/22 06:55:41;;;;;;;2.25;0.73;;;;;;;;;;4416867;32;20061;-55
2022/01/22 06:58:10;;;;;;;2.58;1.00;;;;;;;;;;4405224;32;20481;-52
2022/01/22 07:00:39;;;;;;;1.25;0.50;;;;;;;;;;4417472;32;20089;-51
2022/01/22 07:03:08;;;;;;;2.75;0.80;;;;;;;;;;4403478;32;20051;-50
2022/01/22 07:05:37;;;;;;;2.35;0.98;;;;;;;;;;4407811;32;20525;-51
2022/01/22 07:08:06;;;;;;;3.08;0.90;;;;;;;;;;4410823;32;20039;-50
2022/01/22 07:10:35;;;;;;;2.65;0.98;;;;;;;;;;4408532;32;20068;-51
2022/01/22 07:13:04;;;;;;;3.33;0.90;;;;;;;;;;4410631;32;20022;-50
2022/01/22 07:15:32;;;;;;;2.17;0.90;;;;;;;;;;4412103;32;20080;-53
2022/01/22 07:18:03;;;;;;;3.95;0.90;;;;;;;;;;4405359;32;20054;-51
2022/01/22 07:20:39;;;;;;;1.58;0.70;;;;;;;;;;4414168;32;20081;-49
2022/01/22 07:25:44;;;;;;;2.17;0.70;;;;;;;;;;4405145;32;20089;-52
2022/01/22 07:28:16;;;;;;;3.62;0.90;;;;;;;;;;4407176;32;20038;-50
2022/01/22 07:30:46;;;;;;;4.87;1.00;;;;;;;;;;4405409;32;20027;-51
2022/01/22 07:33:17;;;;;;;0.75;0.60;;;;;;;;;;4406818;32;20083;-50
2022/01/22 07:35:46;;;;;;;5.35;0.90;;;;;;;;;;4405257;32;20035;-50
2022/01/22 07:38:15;;;;;;;3.25;0.98;;;;;;;;;;4406706;32;20038;-51
2022/01/22 07:40:43;;;;;;;2.65;0.88;;;;;;;;;;4405619;32;20050;-50
2022/01/22 07:43:14;;;;;;;2.70;0.88;;;;;;;;;;4411617;32;20441;-53
2022/01/22 07:45:45;;;;;;;3.60;1.23;;;;;;;;;;4409744;32;20061;-53
2022/01/22 07:48:15;;;;;;;3.35;0.90;;;;;;;;;;4415291;32;20035;-52
2022/01/22 07:50:48;;;;;;;3.37;0.90;;;;;;;;;;4408959;32;20109;-53
2022/01/22 07:53:17;;;;;;;2.50;0.82;;;;;;;;;;4406137;32;20049;-53
2022/01/22 07:55:45;;;;;;;2.87;0.90;;;;;;;;;;4412171;32;20046;-50
2022/01/22 07:58:14;;;;;;;1.50;0.80;;;;;;;;;;4408967;32;20052;-52
2022/01/22 08:00:43;;;;;;;1.58;0.98;;;;;;;;;;4405459;32;20050;-53
2022/01/22 08:03:12;;;;;;;2.35;1.10;;;;;;;;;;4408312;32;20051;-50
2022/01/22 08:05:43;;;;;;;4.25;0.90;;;;;;;;;;4407839;32;20074;-51
2022/01/22 08:08:17;;;;;;;2.22;0.90;;;;;;;;;;4414893;32;20054;-50
2022/01/22 08:10:49;;;;;;;2.00;0.80;;;;;;;;;;4408772;32;20430;-53
2022/01/22 08:13:19;;;;;;;1.98;0.80;;;;;;;;;;4411419;32;20070;-53
2022/01/22 08:15:47;;;;;;;2.10;0.70;;;;;;;;;;4416155;32;20066;-50
2022/01/22 08:18:16;;;;;;;2.20;0.90;;;;;;;;;;4416994;32;20050;-52
2022/01/22 08:20:44;;;;;;;2.47;0.90;;;;;;;;;;4402024;32;20065;-54
2022/01/22 08:23:18;;;;;;;3.50;0.80;;;;;;;;;;4404081;32;20068;-53
2022/01/22 08:25:48;;;;;;;2.35;0.82;;;;;;;;;;4402561;32;20031;-56
2022/01/22 08:31:18;;;;;;;1.95;0.90;;;;;;;;;;4408999;32;20381;-55
2022/01/22 08:36:34;;;;;;;1.77;0.90;;;;;;;;;;4412361;32;20079;-56
2022/01/22 08:39:04;;;;;;;2.25;0.90;;;;;;;;;;4409584;32;20075;-53
2022/01/22 08:41:33;;;;;;;1.42;0.60;;;;;;;;;;4413256;32;20062;-56
2022/01/22 08:44:03;;;;;;;3.78;1.17;;;;;;;;;;4413011;32;20033;-53
2022/01/22 08:46:31;;;;;;;1.20;0.65;;;;;;;;;;4411603;32;20057;-56
2022/01/22 08:49:00;;;;;;;2.65;0.95;;;;;;;;;;4416467;32;20504;-56
2022/01/22 08:51:29;;;;;;;3.65;1.00;;;;;;;;;;4411720;32;20087;-55
2022/01/22 08:53:59;;;;;;;1.00;0.60;;;;;;;;;;4415953;32;20658;-55
2022/01/22 08:56:29;;;;;;;1.92;0.75;;;;;;;;;;4410042;32;20081;-53
2022/01/22 08:58:57;;;;;;;3.28;0.90;;;;;;;;;;4412764;32;20449;-56
2022/01/22 09:01:27;;;;;;;2.90;1.05;;;;;;;;;;4400685;32;20082;-55
2022/01/22 09:03:56;;;;;;;3.42;1.00;;;;;;;;;;4405379;32;20047;-55
2022/01/22 09:06:25;;;;;;;1.35;0.65;;;;;;;;;;4416944;32;20035;-55
2022/01/22 09:09:05;;;;;;;1.77;0.60;;;;;;;;;;4411335;32;20425;-55
2022/01/22 09:11:34;;;;;;;1.73;0.60;;;;;;;;;;4402330;32;20035;-54
2022/01/22 09:14:03;;;;;;;1.58;0.73;;;;;;;;;;4408181;32;20361;-55
2022/01/22 09:16:33;;;;;;;2.67;0.60;;;;;;;;;;4413971;32;20046;-53
2022/01/22 09:19:06;;;;;;;1.33;0.82;;;;;;;;;;4405731;32;20164;-55
2022/01/22 09:21:34;;;;;;;3.00;0.70;;;;;;;;;;4406956;32;20456;-56
2022/01/22 09:24:04;;;;;;;1.55;0.80;;;;;;;;;;4411787;32;20093;-53
2022/01/22 09:26:32;;;;;;;3.37;0.70;;;;;;;;;;4409173;32;20039;-55
2022/01/22 09:29:01;;;;;;;1.40;0.80;;;;;;;;;;4413465;32;20039;-56
2022/01/22 09:31:30;;;;;;;2.60;1.00;;;;;;;;;;4404380;32;20072;-54
2022/01/22 09:34:00;;;;;;;1.30;0.62;;;;;;;;;;4417558;32;20088;-53
2022/01/22 09:36:30;;;;;;;2.17;0.80;;;;;;;;;;4414311;32;20053;-52
2022/01/22 09:38:59;;;;;;;1.50;0.65;;;;;;;;;;4406482;32;20087;-50
2022/01/22 09:41:28;;;;;;;2.00;0.95;;;;;;;;;;4404155;32;20117;-52
2022/01/22 09:43:58;;;;;;;2.03;0.88;;;;;;;;;;4408174;32;20096;-53
2022/01/22 09:46:28;;;;;;;1.27;0.70;;;;;;;;;;4406339;32;20380;-54
2022/01/22 09:48:59;;;;;;;2.72;0.90;;;;;;;;;;4403991;32;20067;-55
2022/01/22 09:51:29;;;;;;;1.40;0.77;;;;;;;;;;4410438;32;20496;-54
2022/01/22 09:53:59;;;;;;;2.28;0.90;;;;;;;;;;4409658;32;20176;-53
2022/01/22 09:56:30;;;;;;;1.80;0.62;;;;;;;;;;4410754;32;20070;-52
2022/01/22 09:59:01;;;;;;;2.65;0.80;;;;;;;;;;4415243;32;20054;-55
2022/01/22 10:01:34;;;;;;;2.33;0.65;;;;;;;;;;4409525;32;20078;-54
2022/01/22 10:04:05;;;;;;;2.15;0.80;;;;;;;;;;4413681;32;20100;-55
2022/01/22 10:06:49;;;;;;;2.37;0.70;;;;;;;;;;4416772;32;20059;-55
2022/01/22 10:09:26;;;;;;;1.65;0.75;;;;;;;;;;4415554;32;20090;-55
2022/01/22 10:12:19;;;;;;;1.70;0.75;;;;;;;;;;4408816;32;20066;-54
2022/01/22 10:15:08;;;;;;;2.70;0.80;;;;;;;;;;4408786;32;20046;-55
2022/01/22 10:17:48;;;;;;;1.45;0.60;;;;;;;;;;4407619;32;20111;-52
2022/01/22 10:20:29;;;;;;;1.65;0.88;;;;;;;;;;4410187;32;20106;-52
2022/01/22 10:23:00;;;;;;;2.25;0.60;;;;;;;;;;4412668;32;20050;-53
2022/01/22 10:25:31;;;;;;;3.05;0.73;;;;;;;;;;4406009;32;20078;-54
2022/01/22 10:28:01;;;;;;;1.85;0.70;;;;;;;;;;4416941;32;20034;-51
2022/01/22 10:30:39;;;;;;;0.70;0.50;;;;;;;;;;4411883;32;20485;-52
2022/01/22 10:33:30;;;;;;;1.50;0.70;;;;;;;;;;4401199;32;20069;-54
2022/01/22 10:36:21;;;;;;;1.10;0.70;;;;;;;;;;4414881;32;20046;-52
2022/01/22 10:39:00;;;;;;;1.48;0.88;;;;;;;;;;4404530;32;20059;-54
2022/01/22 10:41:34;;;;;;;2.15;0.95;;;;;;;;;;4409316;32;20452;-52
2022/01/22 10:44:04;;;;;;;3.28;0.75;;;;;;;;;;4413951;32;20054;-53
2022/01/22 10:46:50;;;;;;;2.60;0.88;;;;;;;;;;4404853;32;20049;-52
2022/01/22 10:49:24;;;;;;;3.42;0.90;;;;;;;;;;4411219;32;20077;-54
2022/01/22 10:51:54;;;;;;;1.95;0.82;;;;;;;;;;4407948;32;20063;-54
2022/01/22 10:54:24;;;;;;;1.48;0.80;;;;;;;;;;4408257;32;20042;-54
2022/01/22 10:56:53;;;;;;;1.48;0.80;;;;;;;;;;4417027;32;20411;-53
2022/01/22 10:59:22;;;;;;;1.98;0.60;;;;;;;;;;4411497;32;20102;-52
2022/01/22 11:01:55;;;;;;;1.15;0.70;;;;;;;;;;4407111;32;20112;-54
2022/01/22 11:04:28;;;;;;;2.03;0.70;;;;;;;;;;4408087;32;20038;-53
2022/01/22 11:06:58;;;;;;;1.12;0.50;;;;;;;;;;4412380;32;20453;-51
2022/01/22 11:09:48;;;;;;;0.80;0.70;;;;;;;;;;4407958;32;20046;-52
2022/01/22 11:12:16;;;;;;;1.85;0.70;;;;;;;;;;4401235;32;20399;-51
2022/01/22 11:14:45;;;;;;;1.65;0.77;;;;;;;;;;4407093;32;20442;-54
2022/01/22 11:17:14;;;;;;;0.77;0.55;;;;;;;;;;4404916;32;20042;-55
2022/01/22 11:19:49;;;;;;;1.17;0.60;;;;;;;;;;4406597;32;20082;-55
2022/01/22 11:22:19;;;;;;;0.93;0.50;;;;;;;;;;4414638;32;20484;-52
2022/01/22 11:24:49;;;;;;;3.30;0.90;;;;;;;;;;4411377;32;20026;-52
2022/01/22 11:27:18;;;;;;;1.80;0.80;;;;;;;;;;4420172;32;20038;-54
2022/01/22 11:29:51;;;;;;;1.52;0.70;;;;;;;;;;4413180;32;20089;-54
2022/01/22 11:32:20;;;;;;;2.95;0.60;;;;;;;;;;4411337;32;20090;-54
2022/01/22 11:34:50;;;;;;;0.98;0.57;;;;;;;;;;4411882;32;20085;-53
2022/01/22 11:37:43;;;;;;;1.10;0.70;;;;;;;;;;4412855;32;20544;-51
2022/01/22 11:40:15;;;;;;;0.88;0.57;;;;;;;;;;4412206;32;20038;-53
2022/01/22 11:43:06;;;;;;;1.95;0.70;;;;;;;;;;4416103;32;20050;-54
2022/01/22 11:45:36;;;;;;;1.85;0.65;;;;;;;;;;4410528;32;20167;-54
2022/01/22 11:48:15;;;;;;;0.60;0.60;;;;;;;;;;4417621;32;20034;-53
2022/01/22 11:50:46;;;;;;;2.12;0.80;;;;;;;;;;4415337;32;20051;-53
2022/01/22 11:53:24;;;;;;;1.30;0.65;;;;;;;;;;4416900;32;20456;-51
2022/01/22 11:56:08;;;;;;;1.35;0.60;;;;;;;;;;4419244;32;20033;-55
2022/01/22 11:58:55;;;;;;;1.92;0.60;;;;;;;;;;4414683;32;20034;-53
2022/01/22 12:01:39;;;;;;;1.67;0.70;;;;;;;;;;4408127;32;20429;-56
2022/01/22 12:04:09;;;;;;;0.62;0.62;;;;;;;;;;4407274;32;20058;-53
2022/01/22 12:07:00;;;;;;;1.60;0.70;;;;;;;;;;4411126;32;20043;-52
2022/01/22 12:09:32;;;;;;;1.05;0.60;;;;;;;;;;4412892;32;20066;-54
2022/01/22 12:15:08;;;;;;;1.60;0.60;;;;;;;;;;4408328;32;20042;-51
2022/01/22 12:17:58;;;;;;;1.10;0.70;;;;;;;;;;4409187;32;20096;-55
2022/01/22 12:23:13;;;;;;;1.40;0.73;;;;;;;;;;4408108;32;20074;-55
2022/01/22 12:25:42;;;;;;;2.10;0.73;;;;;;;;;;4409389;32;20096;-57
2022/01/22 12:28:12;;;;;;;2.67;1.00;;;;;;;;;;4412617;32;20042;-57
2022/01/22 12:30:45;;;;;;;2.72;0.90;;;;;;;;;;4407819;32;20054;-56
2022/01/22 12:33:15;;;;;;;2.67;0.80;;;;;;;;;;4405643;32;20090;-55
2022/01/22 12:35:46;;;;;;;3.95;1.00;;;;;;;;;;4407638;32;20422;-57
2022/01/22 12:38:47;;;;;;;5.68;1.00;;;;;;;;;;4409709;32;20441;-56
2022/01/22 12:44:13;;;;;;;2.67;0.77;;;;;;;;;;4409753;32;20066;-54
2022/01/22 12:46:51;;;;;;;5.97;1.05;;;;;;;;;;4410898;32;20598;-57
2022/01/22 12:49:21;;;;;;;5.93;1.45;;;;;;;;;;4410234;32;20362;-58
2022/01/22 12:51:59;;;;;;;5.28;1.00;;;;;;;;;;4412400;32;20107;-55
2022/01/22 12:54:28;;;;;;;7.30;0.93;;;;;;;;;;4413634;32;20427;-55
2022/01/22 12:57:05;;;;;;;7.18;1.30;;;;;;;;;;4409523;32;20043;-57
2022/01/22 12:59:48;;;;;;;5.22;1.02;;;;;;;;;;4412740;32;20057;-56
2022/01/22 13:02:21;;;;;;;3.22;1.17;;;;;;;;;;4421356;32;20433;-56
2022/01/22 13:05:03;;;;;;;3.12;1.00;;;;;;;;;;4406192;32;20149;-55
2022/01/22 13:07:43;;;;;;;5.30;1.00;;;;;;;;;;4405170;32;20030;-58
2022/01/22 13:10:15;;;;;;;4.53;0.90;;;;;;;;;;4427906;32;20464;-54
2022/01/22 13:12:44;;;;;;;5.35;1.20;;;;;;;;;;4400533;32;20086;-58
2022/01/22 13:15:17;;;;;;;3.87;1.10;;;;;;;;;;4402816;32;20061;-57
2022/01/22 13:17:51;;;;;;;4.20;1.05;;;;;;;;;;4403518;32;20042;-58
2022/01/22 13:20:21;;;;;;;4.72;1.23;;;;;;;;;;4409250;32;20045;-57
2022/01/22 13:22:50;;;;;;;6.62;1.33;;;;;;;;;;4410597;32;20097;-57
2022/01/22 13:25:18;;;;;;;5.07;1.27;;;;;;;;;;4411776;32;20050;-57
2022/01/22 13:27:59;;;;;;;4.72;1.23;;;;;;;;;;4414462;32;20026;-56
2022/01/22 13:30:35;;;;;;;4.55;1.00;;;;;;;;;;4412648;32;20449;-57
2022/01/22 13:33:21;;;;;;;5.12;0.95;;;;;;;;;;4409587;32;20046;-57
2022/01/22 13:38:57;;;;;;;3.55;1.20;;;;;;;;;;4400022;32;20418;-57
2022/01/22 13:49:51;;;;;;;7.95;1.60;;;;;;;;;;4407453;32;20086;-57
2022/01/22 13:52:21;;;;;;;4.97;1.10;;;;;;;;;;4404941;32;20148;-56
2022/01/22 13:54:52;;;;;;;5.62;1.20;;;;;;;;;;4406969;32;20512;-57
2022/01/22 13:57:21;;;;;;;4.68;1.02;;;;;;;;;;4405489;32;20120;-58
2022/01/22 13:59:53;;;;;;;4.22;0.90;;;;;;;;;;4408007;32;20481;-54
2022/01/22 14:04:56;;;;;;;5.78;1.23;;;;;;;;;;4402828;32;20071;-56
2022/01/22 14:07:26;;;;;;;4.95;1.20;;;;;;;;;;4406658;32;20049;-57
2022/01/22 14:10:13;;;;;;;3.75;1.25;;;;;;;;;;4408677;32;20030;-57
2022/01/22 14:12:43;;;;;;;;;;;;;;;;;;4404459;32;20125;-58
2022/01/22 14:15:28;;;;;;;3.20;0.80;;;;;;;;;;4405030;32;19956;-56
2022/01/22 14:18:21;;;;;;;4.50;1.00;;;;;;;;;;4404592;32;20437;-55
2022/01/22 14:20:54;;;;;;;10.45;1.12;;;;;;;;;;4406806;32;20078;-56
2022/01/22 14:23:23;;;;;;;4.10;0.90;;;;;;;;;;4418116;32;20399;-57
2022/01/22 14:26:10;;;;;;;7.07;0.98;;;;;;;;;;4404852;32;20079;-56
2022/01/22 14:28:42;;;;;;;3.85;1.00;;;;;;;;;;4406611;32;20124;-58
2022/01/22 14:31:25;;;;;;;4.30;1.15;;;;;;;;;;4407395;32;20123;-53
2022/01/22 14:33:54;;;;;;;5.97;1.10;;;;;;;;;;4405678;32;20404;-57
2022/01/22 14:36:24;;;;;;;6.93;1.02;;;;;;;;;;4404416;32;20086;-57
2022/01/22 14:39:10;;;;;;;5.22;1.05;;;;;;;;;;4413989;32;20058;-56
2022/01/22 14:44:36;;;;;;;7.22;1.20;;;;;;;;;;4413119;32;20135;-56
2022/01/22 14:47:18;;;;;;;6.50;1.33;;;;;;;;;;4409787;32;20026;-56
2022/01/22 14:49:55;;;;;;;4.18;1.40;;;;;;;;;;4420044;32;20082;-56
2022/01/22 14:52:25;;;;;;;5.68;1.40;;;;;;;;;;4417960;32;20047;-57
2022/01/22 14:54:54;;;;;;;8.65;1.45;;;;;;;;;;4417454;32;20416;-56
2022/01/22 14:57:24;;;;;;;5.30;1.50;;;;;;;;;;4408432;32;20034;-57
2022/01/22 14:59:52;;;;;;;9.45;1.52;;;;;;;;;;4411967;32;20064;-59
2022/01/22 15:02:21;;;;;;;8.70;1.40;;;;;;;;;;4409150;32;20043;-57
2022/01/22 15:04:51;;;;;;;10.95;1.70;;;;;;;;;;4410659;32;20034;-57
2022/01/22 15:07:19;;;;;;;7.47;1.77;;;;;;;;;;4417829;32;20074;-57
2022/01/22 15:09:49;;;;;;;8.05;1.58;;;;;;;;;;4415406;32;20070;-55
2022/01/22 15:12:18;;;;;;;7.85;1.70;;;;;;;;;;4405980;32;20042;-55
2022/01/22 15:14:47;;;;;;;5.60;1.30;;;;;;;;;;4409240;32;23738;-56
2022/01/22 15:17:29;;;;;;;9.27;1.58;;;;;;;;;;4417700;32;20361;-56
2022/01/22 15:19:57;;;;;;;6.68;1.50;;;;;;;;;;4412591;32;20143;-56
2022/01/22 15:22:26;;;;;;;13.07;1.95;;;;;;;;;;4403387;32;20043;-56
2022/01/22 15:24:56;;;;;;;9.55;1.62;;;;;;;;;;4411762;32;20084;-55
2022/01/22 15:27:31;;;;;;;4.75;1.62;;;;;;;;;;4412852;32;20080;-57
2022/01/22 15:30:11;;;;;;;11.07;1.77;;;;;;;;;;4406769;32;20344;-53
2022/01/22 15:35:17;;;;;;;9.38;1.65;;;;;;;;;;4403145;32;20128;-53
2022/01/22 15:37:50;;;;;;;9.00;1.77;;;;;;;;;;4405599;32;20395;-55
2022/01/22 15:40:20;;;;;;;10.32;1.67;;;;;;;;;;4414882;32;20057;-52
2022/01/22 15:42:49;;;;;;;8.88;1.40;;;;;;;;;;4404170;32;20151;-54
2022/01/22 15:45:20;;;;;;;4.53;1.17;;;;;;;;;;4415277;32;20084;-55
2022/01/22 15:47:49;;;;;;;6.43;1.17;;;;;;;;;;4418691;32;20392;-52
2022/01/22 15:50:18;;;;;;;7.05;1.20;;;;;;;;;;4412623;32;20022;-53
2022/01/22 15:53:07;;;;;;;6.32;1.10;;;;;;;;;;4414085;32;20373;-55
2022/01/22 15:55:35;;;;;;;6.18;1.42;;;;;;;;;;4413257;32;20050;-55
2022/01/22 15:58:05;;;;;;;9.25;1.23;;;;;;;;;;4414657;32;20091;-54
2022/01/22 16:00:36;;;;;;;7.25;1.58;;;;;;;;;;4405893;32;20034;-52
2022/01/22 16:03:06;;;;;;;7.53;1.67;;;;;;;;;;4419414;32;20054;-55
2022/01/22 16:05:34;;;;;;;6.55;1.45;;;;;;;;;;4411718;32;20077;-53
2022/01/22 16:08:04;;;;;;;8.43;1.10;;;;;;;;;;4411401;32;20105;-54
2022/01/22 16:10:54;;;;;;;11.00;1.70;;;;;;;;;;4409730;32;20050;-55
2022/01/22 16:13:24;;;;;;;7.78;1.23;;;;;;;;;;4407365;32;20093;-55
2022/01/22 16:15:53;;;;;;;3.83;1.08;;;;;;;;;;4409096;32;20051;-54
2022/01/22 16:18:22;;;;;;;6.87;1.40;;;;;;;;;;4410576;32;20039;-55
2022/01/22 16:20:50;;;;;;;5.37;1.10;;;;;;;;;;4412347;32;20496;-55
2022/01/22 16:23:19;;;;;;;5.25;1.10;;;;;;;;;;4404561;32;20399;-54
2022/01/22 16:25:47;;;;;;;4.45;1.23;;;;;;;;;;4408697;32;20080;-54
2022/01/22 16:28:16;;;;;;;4.32;1.02;;;;;;;;;;4413298;32;20057;-54
2022/01/22 16:30:44;;;;;;;9.63;1.60;;;;;;;;;;4402678;32;20558;-55
2022/01/22 16:33:14;;;;;;;11.05;1.50;;;;;;;;;;4407603;32;20035;-52
2022/01/22 16:35:42;;;;;;;6.10;1.17;;;;;;;;;;4414775;32;20070;-51
2022/01/22 16:38:11;;;;;;;7.43;1.55;;;;;;;;;;4415747;32;20077;-55
2022/01/22 16:40:39;;;;;;;6.68;1.40;;;;;;;;;;4418365;32;20031;-53
2022/01/22 16:43:09;;;;;;;6.32;1.40;;;;;;;;;;4412095;32;20457;-52
2022/01/22 16:51:20;;;;;;;9.02;1.65;;;;;;;;;;4410824;32;20060;-54
2022/01/22 16:56:51;;;;;;;5.78;1.00;;;;;;;;;;4405124;32;20129;-54
2022/01/22 16:59:35;;;;;;;5.47;1.30;;;;;;;;;;4411818;32;20050;-52
2022/01/22 17:02:05;;;;;;;4.53;1.33;;;;;;;;;;4415768;32;20025;-51
2022/01/22 17:04:49;;;;;;;6.40;1.20;;;;;;;;;;4409452;32;20035;-54
2022/01/22 17:07:28;;;;;;;;;;;;;;;;;;4411793;32;20050;-53
2022/01/22 17:15:14;;;;;;;6.65;1.20;;;;;;;;;;4408103;32;20054;-53
2022/01/22 17:17:43;;;;;;;6.47;1.35;;;;;;;;;;4414731;32;20098;-55
2022/01/22 17:20:13;;;;;;;11.48;1.60;;;;;;;;;;4406420;32;20088;-55
2022/01/22 17:22:42;;;;;;;6.47;1.27;;;;;;;;;;4408312;32;20073;-51
2022/01/22 17:25:11;;;;;;;5.45;1.12;;;;;;;;;;4408638;32;20074;-54